createdAt,value
2019-04-01T00:02:13.049Z,13.13
2019-04-01T00:04:41.051Z,12.60
2019-04-01T00:07:09.104Z,12.50
2019-04-01T00:09:37.317Z,13.47
2019-04-01T00:12:05.278Z,14.20
2019-04-01T00:14:33.295Z,13.63
2019-04-01T00:17:01.443Z,13.20
2019-04-01T00:19:29.504Z,13.83
2019-04-01T00:21:57.704Z,12.77
2019-04-01T00:24:25.584Z,13.43
2019-04-01T00:26:53.646Z,13.70
2019-04-01T00:29:21.620Z,13.43
2019-04-01T00:31:49.752Z,13.87
2019-04-01T00:34:17.963Z,14.03
2019-04-01T00:36:45.970Z,13.00
2019-04-01T00:39:14.004Z,14.30
2019-04-01T00:41:53.015Z,13.07
2019-04-01T00:44:21.019Z,12.70
2019-04-01T00:46:49.069Z,12.63
2019-04-01T00:49:17.064Z,12.13
2019-04-01T00:51:45.167Z,12.43
2019-04-01T00:54:13.205Z,13.37
2019-04-01T00:56:41.110Z,12.73
2019-04-01T00:59:09.101Z,13.30
2019-04-01T01:01:37.148Z,12.93
2019-04-01T01:04:05.174Z,12.37
2019-04-01T01:06:33.196Z,12.40
2019-04-01T01:09:01.290Z,13.67
2019-04-01T01:11:30.990Z,12.47
2019-04-01T01:13:58.812Z,12.23
2019-04-01T01:16:26.633Z,12.70
2019-04-01T01:18:54.859Z,11.97
2019-04-01T01:21:22.866Z,12.73
2019-04-01T01:23:52.075Z,13.13
2019-04-01T01:26:20.033Z,12.50
2019-04-01T01:28:47.920Z,12.43
2019-04-01T01:31:15.761Z,12.93
2019-04-01T01:33:43.724Z,13.37
2019-04-01T01:36:11.463Z,13.23
2019-04-01T01:38:39.383Z,13.33
2019-04-01T01:41:07.339Z,13.23
2019-04-01T01:43:35.328Z,14.07
2019-04-01T01:46:03.265Z,13.13
2019-04-01T01:48:31.319Z,13.33
2019-04-01T01:50:59.315Z,12.87
2019-04-01T01:53:27.337Z,12.67
2019-04-01T01:55:55.266Z,12.57
2019-04-01T01:58:23.361Z,13.10
2019-04-01T02:00:52.696Z,13.50
2019-04-01T02:03:20.757Z,13.13
2019-04-01T02:05:48.553Z,13.67
2019-04-01T02:08:16.540Z,13.93
2019-04-01T02:10:44.508Z,13.27
2019-04-01T02:13:12.506Z,13.50
2019-04-01T02:15:40.501Z,13.67
2019-04-01T02:18:08.544Z,14.07
2019-04-01T02:20:36.644Z,14.20
2019-04-01T02:23:04.574Z,13.47
2019-04-01T02:25:32.643Z,14.20
2019-04-01T02:28:00.634Z,14.40
2019-04-01T02:30:28.625Z,14.00
2019-04-01T02:32:56.580Z,13.57
2019-04-01T02:35:24.466Z,14.37
2019-04-01T02:37:52.387Z,14.37
2019-04-01T02:40:22.186Z,13.33
2019-04-01T02:42:50.431Z,14.13
2019-04-01T02:45:18.304Z,13.93
2019-04-01T02:47:46.319Z,14.10
2019-04-01T02:50:14.374Z,13.07
2019-04-01T02:52:42.259Z,13.87
2019-04-01T02:55:10.555Z,14.53
2019-04-01T02:57:38.639Z,14.53
2019-04-01T03:00:06.836Z,13.63
2019-04-01T03:02:34.993Z,13.70
2019-04-01T03:05:03.274Z,14.13
2019-04-01T03:07:31.273Z,12.60
2019-04-01T03:09:59.615Z,13.63
2019-04-01T03:12:27.603Z,14.10
2019-04-01T03:14:55.790Z,14.07
2019-04-01T03:17:24.052Z,14.97
2019-04-01T03:19:51.940Z,13.83
2019-04-01T03:22:19.987Z,14.13
2019-04-01T03:24:48.115Z,13.10
2019-04-01T03:27:17.403Z,13.90
2019-04-01T03:29:45.862Z,14.63
2019-04-01T03:32:13.944Z,13.67
2019-04-01T03:34:42.169Z,16.53
2019-04-01T03:37:10.451Z,16.13
2019-04-01T03:39:38.510Z,16.53
2019-04-01T03:42:06.511Z,15.50
2019-04-01T03:44:34.339Z,14.30
2019-04-01T03:47:03.251Z,14.33
2019-04-01T03:49:31.129Z,13.80
2019-04-01T03:51:59.194Z,13.57
2019-04-01T03:54:27.217Z,13.77
2019-04-01T03:56:55.233Z,13.83
2019-04-01T03:59:23.158Z,13.90
2019-04-01T04:01:51.366Z,14.53
2019-04-01T04:04:19.142Z,14.03
2019-04-01T04:06:47.217Z,15.00
2019-04-01T04:09:15.495Z,15.50
2019-04-01T04:11:43.368Z,17.53
2019-04-01T04:14:11.280Z,15.03
2019-04-01T04:16:39.308Z,14.43
2019-04-01T04:19:07.475Z,14.67
2019-04-01T04:21:35.283Z,14.43
2019-04-01T04:24:03.413Z,15.07
2019-04-01T04:26:31.278Z,14.43
2019-04-01T04:28:59.361Z,14.27
2019-04-01T04:31:27.188Z,15.83
2019-04-01T04:33:55.172Z,14.33
2019-04-01T04:36:22.952Z,14.67
2019-04-01T04:38:51.053Z,14.60
2019-04-01T04:41:18.819Z,15.00
2019-04-01T04:43:47.784Z,16.13
2019-04-01T04:46:15.569Z,15.40
2019-04-01T04:48:43.523Z,15.27
2019-04-01T04:51:11.447Z,14.37
2019-04-01T04:53:39.466Z,14.80
2019-04-01T04:56:07.343Z,14.77
2019-04-01T04:58:35.141Z,14.77
2019-04-01T05:01:03.286Z,14.13
2019-04-01T05:03:31.264Z,14.80
2019-04-01T05:05:59.093Z,15.40
2019-04-01T05:08:27.419Z,15.90
2019-04-01T05:10:55.260Z,14.70
2019-04-01T05:13:23.364Z,14.03
2019-04-01T05:15:51.350Z,15.27
2019-04-01T05:18:19.462Z,14.63
2019-04-01T05:20:47.341Z,15.50
2019-04-01T05:23:15.231Z,14.33
2019-04-01T05:25:43.367Z,13.63
2019-04-01T05:28:11.535Z,13.70
2019-04-01T05:30:40.633Z,13.87
2019-04-01T05:33:10.967Z,14.43
2019-04-01T05:35:39.223Z,13.97
2019-04-01T05:38:07.236Z,18.40
2019-04-01T05:40:35.241Z,16.40
2019-04-01T05:43:03.255Z,16.43
2019-04-01T05:45:31.226Z,14.53
2019-04-01T05:47:59.034Z,15.37
2019-04-01T05:50:27.081Z,15.77
2019-04-01T05:52:55.252Z,16.30
2019-04-01T05:55:25.132Z,15.57
2019-04-01T05:57:53.125Z,16.00
2019-04-01T06:00:27.122Z,15.47
2019-04-01T06:02:54.880Z,15.70
2019-04-01T06:05:22.886Z,14.77
2019-04-01T06:07:50.720Z,14.77
2019-04-01T06:10:18.819Z,14.50
2019-04-01T06:12:47.832Z,14.77
2019-04-01T06:15:16.696Z,15.43
2019-04-01T06:17:44.655Z,14.97
2019-04-01T06:20:12.739Z,14.80
2019-04-01T06:22:40.655Z,15.43
2019-04-01T06:25:08.869Z,15.57
2019-04-01T06:27:36.798Z,15.00
2019-04-01T06:30:05.133Z,14.87
2019-04-01T06:32:33.387Z,14.30
2019-04-01T06:35:01.394Z,15.40
2019-04-01T06:37:29.363Z,15.67
2019-04-01T06:39:57.406Z,15.73
2019-04-01T06:42:25.775Z,15.83
2019-04-01T06:44:54.009Z,16.07
2019-04-01T06:47:22.073Z,14.43
2019-04-01T06:49:50.211Z,15.23
2019-04-01T06:52:18.161Z,15.17
2019-04-01T06:54:46.345Z,15.53
2019-04-01T06:57:14.226Z,15.90
2019-04-01T06:59:42.087Z,15.03
2019-04-01T07:02:10.041Z,15.13
2019-04-01T07:04:37.919Z,14.93
2019-04-01T07:07:18.302Z,14.70
2019-04-01T07:09:35.488Z,14.53
2019-04-01T07:12:03.478Z,14.83
2019-04-01T07:14:31.373Z,15.03
2019-04-01T07:16:59.316Z,14.00
2019-04-01T07:19:27.060Z,14.57
2019-04-01T07:21:55.198Z,14.50
2019-04-01T07:24:23.291Z,15.10
2019-04-01T07:26:51.354Z,15.00
2019-04-01T07:29:19.526Z,15.03
2019-04-01T07:31:47.431Z,14.93
2019-04-01T07:34:15.289Z,14.70
2019-04-01T07:36:43.324Z,14.87
2019-04-01T07:39:11.305Z,15.20
2019-04-01T07:41:39.427Z,14.13
2019-04-01T07:44:07.315Z,14.83
2019-04-01T07:46:35.352Z,14.83
2019-04-01T07:49:03.222Z,13.90
2019-04-01T07:51:32.324Z,13.10
2019-04-01T07:54:00.290Z,13.30
2019-04-01T07:56:28.272Z,12.50
2019-04-01T07:58:56.366Z,13.03
2019-04-01T08:01:24.399Z,12.63
2019-04-01T08:03:52.312Z,13.13
2019-04-01T08:06:20.224Z,12.50
2019-04-01T08:08:48.263Z,13.03
2019-04-01T08:11:16.269Z,12.83
2019-04-01T08:13:44.262Z,13.03
2019-04-01T08:16:12.596Z,12.33
2019-04-01T08:18:40.459Z,12.10
2019-04-01T08:21:08.728Z,12.40
2019-04-01T08:23:36.647Z,12.53
2019-04-01T08:26:04.611Z,12.20
2019-04-01T08:28:32.624Z,11.53
2019-04-01T08:31:00.543Z,12.37
2019-04-01T08:33:28.428Z,13.65
2019-04-01T08:35:56.387Z,12.95
2019-04-01T08:38:25.403Z,12.98
2019-04-01T08:40:53.341Z,12.73
2019-04-01T08:43:21.211Z,12.45
2019-04-01T08:45:50.528Z,13.45
2019-04-01T08:48:18.329Z,15.83
2019-04-01T08:50:47.415Z,15.05
2019-04-01T08:53:15.319Z,14.95
2019-04-01T08:55:43.222Z,15.28
2019-04-01T08:58:11.238Z,14.68
2019-04-01T09:00:39.297Z,14.90
2019-04-01T09:03:07.034Z,14.98
2019-04-01T09:05:35.274Z,14.50
2019-04-01T09:08:03.312Z,16.30
2019-04-01T09:10:31.650Z,15.70
2019-04-01T09:12:59.858Z,16.42
2019-04-01T09:15:27.948Z,15.93
2019-04-01T09:17:56.075Z,16.70
2019-04-01T09:20:24.174Z,17.00
2019-04-01T09:22:52.310Z,17.75
2019-04-01T09:25:20.498Z,16.95
2019-04-01T09:27:48.559Z,16.32
2019-04-01T09:30:18.652Z,17.15
2019-04-01T09:32:46.836Z,17.30
2019-04-01T09:35:15.935Z,17.57
2019-04-01T09:37:44.177Z,17.25
2019-04-01T09:40:12.250Z,16.32
2019-04-01T09:42:40.155Z,16.93
2019-04-01T09:45:08.388Z,16.20
2019-04-01T09:47:36.298Z,17.00
2019-04-01T09:50:05.039Z,17.42
2019-04-01T09:52:32.977Z,17.17
2019-04-01T09:55:01.037Z,15.70
2019-04-01T09:57:29.967Z,15.98
2019-04-01T09:59:57.908Z,14.68
2019-04-01T10:02:31.987Z,15.90
2019-04-01T10:04:55.984Z,14.75
2019-04-01T10:07:24.105Z,16.30
2019-04-01T10:09:52.113Z,15.20
2019-04-01T10:12:20.269Z,16.05
2019-04-01T10:14:48.297Z,15.38
2019-04-01T10:17:16.337Z,14.98
2019-04-01T10:19:45.458Z,15.83
2019-04-01T10:22:13.534Z,14.90
2019-04-01T10:24:41.472Z,14.93
2019-04-01T10:27:10.616Z,16.12
2019-04-01T10:29:39.087Z,16.50
2019-04-01T10:32:07.069Z,14.47
2019-04-01T10:34:35.364Z,15.60
2019-04-01T10:37:03.703Z,14.65
2019-04-01T10:39:31.584Z,15.78
2019-04-01T10:41:59.549Z,15.70
2019-04-01T10:44:28.491Z,15.30
2019-04-01T10:46:56.576Z,16.02
2019-04-01T10:49:24.582Z,17.12
2019-04-01T10:51:52.744Z,15.45
2019-04-01T10:54:20.777Z,15.93
2019-04-01T10:56:48.779Z,15.05
2019-04-01T10:59:16.656Z,16.77
2019-04-01T11:01:44.860Z,15.53
2019-04-01T11:04:13.020Z,15.83
2019-04-01T11:06:41.021Z,16.07
2019-04-01T11:09:10.052Z,14.70
2019-04-01T11:11:38.033Z,16.73
2019-04-01T11:14:06.209Z,16.70
2019-04-01T11:16:34.118Z,16.15
2019-04-01T11:19:02.423Z,14.80
2019-04-01T11:21:30.318Z,15.95
2019-04-01T11:23:58.197Z,14.38
2019-04-01T11:26:26.445Z,15.58
2019-04-01T11:28:54.552Z,14.93
2019-04-01T11:31:22.635Z,14.03
2019-04-01T11:33:50.638Z,14.28
2019-04-01T11:36:18.803Z,14.55
2019-04-01T11:38:46.765Z,14.65
2019-04-01T11:41:14.960Z,13.85
2019-04-01T11:43:43.291Z,12.85
2019-04-01T11:46:12.652Z,14.10
2019-04-01T11:48:41.472Z,13.98
2019-04-01T11:51:09.585Z,14.15
2019-04-01T11:53:37.675Z,14.28
2019-04-01T11:56:05.768Z,14.80
2019-04-01T11:58:33.791Z,14.40
2019-04-01T12:01:02.180Z,15.40
2019-04-01T12:03:30.398Z,13.78
2019-04-01T12:05:58.400Z,13.28
2019-04-01T12:08:26.495Z,14.10
2019-04-01T12:10:54.551Z,14.38
2019-04-01T12:13:22.498Z,12.73
2019-04-01T12:15:50.566Z,12.20
2019-04-01T12:18:18.504Z,12.23
2019-04-01T12:20:46.615Z,12.35
2019-04-01T12:23:14.542Z,13.88
2019-04-01T12:25:42.881Z,13.22
2019-04-01T12:28:10.888Z,13.20
2019-04-01T12:30:38.786Z,14.78
2019-04-01T12:33:06.699Z,13.30
2019-04-01T12:35:34.828Z,13.53
2019-04-01T12:38:02.862Z,12.13
2019-04-01T12:40:30.894Z,12.20
2019-04-01T12:42:59.246Z,13.08
2019-04-01T12:45:27.424Z,12.85
2019-04-01T12:47:55.318Z,12.05
2019-04-01T12:50:23.369Z,13.28
2019-04-01T12:52:51.355Z,11.73
2019-04-01T12:55:19.446Z,12.33
2019-04-01T12:57:48.569Z,11.43
2019-04-01T13:00:17.586Z,11.85
2019-04-01T13:02:45.699Z,11.40
2019-04-01T13:05:13.737Z,12.58
2019-04-01T13:07:42.614Z,12.50
2019-04-01T13:10:10.722Z,11.88
2019-04-01T13:12:38.712Z,11.80
2019-04-01T13:15:06.771Z,12.13
2019-04-01T13:17:35.035Z,11.25
2019-04-01T13:20:03.350Z,12.20
2019-04-01T13:22:31.443Z,12.60
2019-04-01T13:25:01.544Z,11.95
2019-04-01T13:27:29.781Z,12.00
2019-04-01T13:29:57.653Z,11.75
2019-04-01T13:32:25.625Z,12.00
2019-04-01T13:34:53.501Z,12.20
2019-04-01T13:37:21.511Z,11.35
2019-04-01T13:39:49.466Z,13.13
2019-04-01T13:42:17.355Z,12.13
2019-04-01T13:44:45.393Z,12.73
2019-04-01T13:47:13.134Z,12.70
2019-04-01T13:49:40.999Z,11.70
2019-04-01T13:52:08.879Z,11.63
2019-04-01T13:54:37.032Z,11.53
2019-04-01T13:57:04.883Z,10.93
2019-04-01T13:59:32.872Z,11.60
2019-04-01T14:02:00.727Z,10.33
2019-04-01T14:04:28.495Z,11.00
2019-04-01T14:06:56.635Z,11.60
2019-04-01T14:09:24.537Z,11.20
2019-04-01T14:11:52.605Z,11.23
2019-04-01T14:14:20.491Z,12.23
2019-04-01T14:16:48.552Z,12.60
2019-04-01T14:19:16.623Z,11.57
2019-04-01T14:21:44.610Z,12.23
2019-04-01T14:24:12.568Z,12.13
2019-04-01T14:26:41.092Z,12.73
2019-04-01T14:29:09.133Z,11.67
2019-04-01T14:31:37.204Z,11.27
2019-04-01T14:34:06.383Z,12.03
2019-04-01T14:36:34.557Z,11.87
2019-04-01T14:39:03.652Z,12.40
2019-04-01T14:41:32.057Z,12.23
2019-04-01T14:44:00.133Z,12.47
2019-04-01T14:46:28.271Z,13.20
2019-04-01T14:49:00.154Z,13.13
2019-04-01T14:51:26.298Z,12.53
2019-04-01T14:53:54.254Z,10.90
2019-04-01T14:56:22.140Z,12.20
2019-04-01T14:58:50.189Z,12.63
2019-04-01T15:01:18.436Z,12.53
2019-04-01T15:03:46.371Z,13.07
2019-04-01T15:06:14.354Z,12.93
2019-04-01T15:08:42.379Z,12.57
2019-04-01T15:11:12.223Z,12.47
2019-04-01T15:13:40.798Z,12.77
2019-04-01T15:16:09.026Z,12.80
2019-04-01T15:18:37.060Z,13.57
2019-04-01T15:21:05.063Z,12.20
2019-04-01T15:23:33.260Z,13.33
2019-04-01T15:26:01.161Z,12.67
2019-04-01T15:28:29.132Z,12.90
2019-04-01T15:30:56.964Z,12.63
2019-04-01T15:33:24.880Z,13.60
2019-04-01T15:35:52.852Z,12.47
2019-04-01T15:38:23.880Z,12.63
2019-04-01T15:40:51.864Z,12.77
2019-04-01T15:43:19.815Z,13.43
2019-04-01T15:45:47.794Z,12.30
2019-04-01T15:48:15.617Z,13.03
2019-04-01T15:50:43.517Z,13.00
2019-04-01T15:53:11.410Z,12.57
2019-04-01T15:55:39.425Z,12.90
2019-04-01T15:58:07.278Z,12.10
2019-04-01T16:00:35.300Z,12.13
2019-04-01T16:03:03.510Z,12.90
2019-04-01T16:05:31.716Z,12.43
2019-04-01T16:07:59.626Z,12.47
2019-04-01T16:10:29.328Z,13.10
2019-04-01T16:12:57.457Z,12.30
2019-04-01T16:15:25.691Z,13.37
2019-04-01T16:17:54.259Z,12.23
2019-04-01T16:20:22.197Z,13.53
2019-04-01T16:22:50.429Z,13.37
2019-04-01T16:25:18.624Z,13.90
2019-04-01T16:27:46.661Z,12.90
2019-04-01T16:30:15.169Z,12.77
2019-04-01T16:32:43.190Z,13.47
2019-04-01T16:35:11.337Z,13.53
2019-04-01T16:37:39.311Z,12.97
2019-04-01T16:40:07.503Z,13.63
2019-04-01T16:42:35.770Z,13.77
2019-04-01T16:45:05.273Z,13.40
2019-04-01T16:47:33.497Z,12.80
2019-04-01T16:50:01.815Z,14.53
2019-04-01T16:52:30.866Z,13.60
2019-04-01T16:55:00.622Z,13.80
2019-04-01T16:57:28.422Z,13.30
2019-04-01T16:59:57.139Z,14.40
2019-04-01T17:02:25.121Z,14.40
2019-04-01T17:04:53.009Z,14.47
2019-04-01T17:07:21.046Z,13.87
2019-04-01T17:09:49.106Z,14.20
2019-04-01T17:12:17.178Z,14.23
2019-04-01T17:14:45.086Z,14.53
2019-04-01T17:17:13.500Z,15.07
2019-04-01T17:19:41.686Z,14.37
2019-04-01T17:22:11.445Z,15.67
2019-04-01T17:24:39.639Z,16.00
2019-04-01T17:27:10.398Z,14.73
2019-04-01T17:29:38.480Z,14.67
2019-04-01T17:32:06.439Z,15.47
2019-04-01T17:34:34.461Z,14.33
2019-04-01T17:37:02.441Z,14.27
2019-04-01T17:39:30.458Z,16.67
2019-04-01T17:41:58.347Z,15.00
2019-04-01T17:44:26.312Z,14.93
2019-04-01T17:46:54.409Z,14.20
2019-04-01T17:49:22.467Z,14.60
2019-04-01T17:51:53.699Z,14.00
2019-04-01T17:54:20.265Z,14.33
2019-04-01T17:56:48.474Z,14.27
2019-04-01T17:59:16.554Z,14.57
2019-04-01T18:01:44.623Z,14.77
2019-04-01T18:04:12.879Z,14.37
2019-04-01T18:06:41.010Z,14.60
2019-04-01T18:09:08.908Z,15.00
2019-04-01T18:11:37.004Z,15.37
2019-04-01T18:14:04.983Z,14.00
2019-04-01T18:16:32.905Z,14.50
2019-04-01T18:19:00.836Z,14.60
2019-04-01T18:21:28.825Z,18.93
2019-04-01T18:23:56.865Z,15.93
2019-04-01T18:26:24.875Z,14.47
2019-04-01T18:28:52.875Z,13.97
2019-04-01T18:31:20.762Z,14.47
2019-04-01T18:33:55.997Z,13.60
2019-04-01T18:36:18.760Z,13.70
2019-04-01T18:38:46.704Z,15.07
2019-04-01T18:41:14.679Z,15.40
2019-04-01T18:43:42.728Z,14.40
2019-04-01T18:46:10.979Z,15.23
2019-04-01T18:48:39.812Z,15.17
2019-04-01T18:51:07.797Z,15.17
2019-04-01T18:53:36.308Z,16.30
2019-04-01T18:56:04.557Z,14.37
2019-04-01T18:58:32.643Z,15.60
2019-04-01T19:01:00.700Z,16.23
2019-04-01T19:03:28.967Z,15.20
2019-04-01T19:05:56.897Z,15.07
2019-04-01T19:08:24.753Z,15.27
2019-04-01T19:11:02.105Z,15.40
2019-04-01T19:13:22.723Z,16.40
2019-04-01T19:15:52.580Z,16.93
2019-04-01T19:18:21.445Z,15.20
2019-04-01T19:20:56.172Z,14.20
2019-04-01T19:23:19.551Z,13.30
2019-04-01T19:25:47.747Z,15.57
2019-04-01T19:28:16.040Z,13.53
2019-04-01T19:30:44.045Z,15.00
2019-04-01T19:33:12.096Z,13.43
2019-04-01T19:35:39.877Z,12.77
2019-04-01T19:38:08.146Z,12.17
2019-04-01T19:40:36.126Z,13.50
2019-04-01T19:43:04.220Z,12.27
2019-04-01T19:45:32.428Z,13.07
2019-04-01T19:48:00.452Z,12.30
2019-04-01T19:50:28.841Z,14.77
2019-04-01T19:52:56.925Z,12.43
2019-04-01T19:55:25.014Z,13.10
2019-04-01T19:57:53.128Z,17.17
2019-04-01T20:00:27.784Z,15.70
2019-04-01T20:02:50.974Z,16.00
2019-04-01T20:05:20.188Z,15.07
2019-04-01T20:07:49.085Z,15.87
2019-04-01T20:10:17.579Z,16.07
2019-04-01T20:12:45.886Z,16.40
2019-04-01T20:15:13.848Z,18.00
2019-04-01T20:17:41.812Z,17.43
2019-04-01T20:20:10.360Z,17.33
2019-04-01T20:22:38.365Z,18.07
2019-04-01T20:25:07.060Z,16.67
2019-04-01T20:27:34.947Z,16.20
2019-04-01T20:30:03.541Z,18.50
2019-04-01T20:32:32.792Z,18.30
2019-04-01T20:35:01.026Z,17.27
2019-04-01T20:37:29.545Z,17.13
2019-04-01T20:39:57.672Z,17.30
2019-04-01T20:42:25.767Z,16.43
2019-04-01T20:44:54.099Z,17.17
2019-04-01T20:47:22.336Z,16.43
2019-04-01T20:49:50.427Z,16.93
2019-04-01T20:52:18.551Z,17.50
2019-04-01T20:54:46.527Z,16.47
2019-04-01T20:57:14.497Z,18.77
2019-04-01T20:59:42.672Z,18.87
2019-04-01T21:02:10.683Z,21.13
2019-04-01T21:04:38.770Z,20.80
2019-04-01T21:07:06.664Z,21.27
2019-04-01T21:09:34.813Z,20.50
2019-04-01T21:12:03.173Z,20.13
2019-04-01T21:14:32.306Z,20.13
2019-04-01T21:17:00.543Z,20.63
2019-04-01T21:19:30.997Z,20.47
2019-04-01T21:21:58.998Z,19.70
2019-04-01T21:24:26.939Z,18.97
2019-04-01T21:26:55.102Z,18.30
2019-04-01T21:29:23.850Z,19.90
2019-04-01T21:31:51.920Z,18.70
2019-04-01T21:34:20.187Z,17.60
2019-04-01T21:36:48.233Z,17.60
2019-04-01T21:39:16.327Z,18.07
2019-04-01T21:41:44.419Z,17.37
2019-04-01T21:44:12.415Z,17.43
2019-04-01T21:46:40.287Z,18.50
2019-04-01T21:49:08.415Z,18.83
2019-04-01T21:51:36.303Z,18.03
2019-04-01T21:54:04.277Z,16.67
2019-04-01T21:56:32.160Z,18.30
2019-04-01T21:59:00.238Z,19.43
2019-04-01T22:01:28.300Z,18.43
2019-04-01T22:03:56.310Z,18.50
2019-04-01T22:06:24.143Z,20.47
2019-04-01T22:08:52.131Z,18.83
2019-04-01T22:11:19.787Z,17.80
2019-04-01T22:13:47.863Z,19.50
2019-04-01T22:16:15.716Z,18.33
2019-04-01T22:18:43.594Z,18.37
2019-04-01T22:21:11.736Z,18.07
2019-04-01T22:23:39.724Z,18.57
2019-04-01T22:26:08.727Z,17.43
2019-04-01T22:28:36.671Z,17.70
2019-04-01T22:31:04.518Z,16.77
2019-04-01T22:33:32.581Z,17.97
2019-04-01T22:36:00.555Z,17.43
2019-04-01T22:38:29.694Z,18.20
2019-04-01T22:40:57.616Z,17.00
2019-04-01T22:43:25.835Z,16.97
2019-04-01T22:45:53.945Z,17.40
2019-04-01T22:48:22.064Z,18.10
2019-04-01T22:50:50.090Z,17.90
2019-04-01T22:53:18.138Z,17.57
2019-04-01T22:55:46.259Z,17.53
2019-04-01T22:58:14.267Z,17.17
2019-04-01T23:00:42.073Z,17.43
2019-04-01T23:03:10.440Z,17.20
2019-04-01T23:05:39.249Z,17.27
2019-04-01T23:08:07.388Z,17.07
2019-04-01T23:10:35.142Z,17.07
2019-04-01T23:13:03.118Z,17.23
2019-04-01T23:15:31.053Z,17.13
2019-04-01T23:17:59.058Z,18.03
2019-04-01T23:20:26.921Z,17.77
2019-04-01T23:22:55.100Z,18.90
2019-04-01T23:25:23.314Z,17.00
2019-04-01T23:27:51.260Z,17.60
2019-04-01T23:30:20.422Z,18.03
2019-04-01T23:32:48.783Z,16.90
2019-04-01T23:35:16.741Z,18.20
2019-04-01T23:37:44.799Z,18.37
2019-04-01T23:40:12.852Z,17.83
2019-04-01T23:42:40.998Z,18.27
2019-04-01T23:45:09.919Z,18.00
2019-04-01T23:47:37.941Z,18.00
2019-04-01T23:50:06.861Z,17.63
2019-04-01T23:52:35.911Z,16.77
2019-04-01T23:55:04.002Z,17.33
2019-04-01T23:57:32.103Z,16.70
